JP-0084 weather

Umaki Heliport
Umaki, Kagawa Prefecture, Japan

Public forecast

Using degrees Celsius for public forecast. Weather courtesy of forecast.io.

Closest aviation weather report (METAR) to Umaki Heliport

Report is more than 2 hours old.

Closest report is Takamatsu Airport, 21.4 nm (39.7 km) SW. Retrieved 2020/01/28 12:00 UTC (4 hours ago):

RJOT 281200Z 24009KT 9999 FEW005 SCT030 BKN050 09/08 Q1010

Closest aviation forecast (TAF) to Umaki Heliport

Closest forecast is Takamatsu Airport, 21.4 nm (39.7 km) SW. Retrieved 2020/01/28 12:30 UTC (4 hours ago):

TAF TAF RJOT 281105Z 2812/2918 24007KT 9999 FEW020 BKN045